Terminal Aerodrome Forecast
Issued by NWS Jackson, MS

Home | Current Version | Previous Version | Text Only | Print | Product List | Glossary On
Versions: 1 2 3 4 5 6 7 8 9 10 11 12 13 14 15 16
661
FTUS44 KMEG 292320
TAFTUP
TAF
KTUP 292320Z 3000/3024 VRB03KT P6SM SCT250
     FM300600 VRB03KT 6SM BR SCT250
      TEMPO 3009/3012 3SM BR SCT025
     FM301500 25005KT P6SM SCT030 BKN250=

USA.gov is the U.S. government's official web portal to all federal, state and local government web resources and services.